Time,TemperatureF,DewpointF,PressureIn,WindDirection,WindDirectionDegrees,WindSpeedMPH,WindSpeedGustMPH,Humidity,HourlyPrecipIn,Conditions,Clouds,dailyrainin,SoftwareType,DateUTC
2013-07-30 00:13:00,60.0,58.0,30.02,SW,234,0.0,0.0,92,0.00,,,0.00,,2013-07-30 07:13:00,
2013-07-30 00:33:00,59.0,57.0,30.02,SW,234,0.0,0.0,92,0.00,,,0.00,,2013-07-30 07:33:00,
2013-07-30 00:43:00,59.0,57.0,30.03,SW,234,0.0,0.0,92,0.00,,,0.00,,2013-07-30 07:43:00,
2013-07-30 01:02:00,58.0,56.0,30.03,SW,234,0.0,0.0,92,0.00,,,0.00,,2013-07-30 08:02:00,
2013-07-30 01:12:00,58.0,56.0,30.03,SW,234,0.0,0.0,92,0.00,,,0.00,,2013-07-30 08:12:00,
2013-07-30 01:32:00,59.0,57.0,30.04,SW,234,0.0,0.0,94,0.00,,,0.00,,2013-07-30 08:32:00,
2013-07-30 01:52:00,58.0,56.0,30.03,SW,234,0.0,0.0,94,0.00,,,0.00,,2013-07-30 08:52:00,
2013-07-30 02:02:00,58.0,56.0,30.04,SW,234,0.0,0.0,94,0.00,,,0.00,,2013-07-30 09:02:00,
2013-07-30 02:12:00,58.0,56.0,30.04,SW,234,0.0,0.0,94,0.00,,,0.00,,2013-07-30 09:12:00,
2013-07-30 02:32:00,58.0,56.0,30.03,SW,234,0.0,0.0,94,0.00,,,0.00,,2013-07-30 09:32:00,
2013-07-30 02:43:00,58.0,56.0,30.03,SW,234,0.0,0.0,94,0.00,,,0.00,,2013-07-30 09:43:00,
2013-07-30 02:53:00,58.0,56.0,30.04,SW,234,0.0,0.0,94,0.00,,,0.00,,2013-07-30 09:53:00,
2013-07-30 03:02:00,57.0,55.0,30.04,SW,234,0.0,0.0,94,0.00,,,0.00,,2013-07-30 10:02:00,
2013-07-30 03:11:00,57.0,55.0,30.04,SW,234,0.0,0.0,94,0.00,,,0.00,,2013-07-30 10:11:00,
2013-07-30 03:43:00,57.0,56.0,30.04,SW,234,0.0,0.0,95,0.00,,,0.00,,2013-07-30 10:43:00,
2013-07-30 03:52:00,57.0,56.0,30.04,SW,234,0.0,0.0,95,0.00,,,0.00,,2013-07-30 10:52:00,
2013-07-30 04:02:00,57.0,56.0,30.04,SW,234,0.0,0.0,95,0.00,,,0.00,,2013-07-30 11:02:00,
2013-07-30 04:33:00,56.0,55.0,30.04,SW,234,0.0,0.0,95,0.00,,,0.00,,2013-07-30 11:33:00,
2013-07-30 04:43:00,56.0,55.0,30.04,SW,234,0.0,0.0,95,0.00,,,0.00,,2013-07-30 11:43:00,
2013-07-30 04:53:00,56.0,55.0,30.04,SW,234,0.0,0.0,95,0.00,,,0.00,,2013-07-30 11:53:00,
2013-07-30 05:11:00,56.0,55.0,30.05,SW,234,0.0,0.0,95,0.00,,,0.00,,2013-07-30 12:11:00,
2013-07-30 05:33:00,57.0,56.0,30.05,SW,234,0.0,1.0,97,0.00,,,0.00,,2013-07-30 12:33:00,
2013-07-30 05:42:00,57.0,56.0,30.06,SW,234,0.0,0.0,97,0.00,,,0.00,,2013-07-30 12:42:00,
2013-07-30 05:53:00,56.0,55.0,30.06,SW,234,0.0,0.0,97,0.00,,,0.00,,2013-07-30 12:53:00,
2013-07-30 06:52:00,56.0,55.0,30.07,SW,234,0.0,0.0,98,0.00,,,0.00,,2013-07-30 13:52:00,
2013-07-30 07:32:00,56.0,55.0,30.08,SW,235,0.0,1.0,98,0.00,,,0.00,,2013-07-30 14:32:00,
2013-07-30 07:53:00,57.0,57.0,30.09,SW,234,0.0,0.0,99,0.00,,,0.00,,2013-07-30 14:53:00,
2013-07-30 08:33:00,58.0,58.0,30.10,SW,234,0.0,1.0,99,0.00,,,0.00,,2013-07-30 15:33:00,
2013-07-30 08:43:00,58.0,58.0,30.10,SW,234,0.0,1.0,99,0.00,,,0.00,,2013-07-30 15:43:00,
2013-07-30 08:52:00,59.0,59.0,30.10,SW,234,0.0,1.0,99,0.00,,,0.00,,2013-07-30 15:52:00,
2013-07-30 09:43:00,63.0,59.0,30.11,SSW,213,3.0,7.0,87,0.00,,,0.00,,2013-07-30 16:43:00,
2013-07-30 10:32:00,68.0,61.0,30.11,SW,226,2.0,5.0,77,0.00,,,0.00,,2013-07-30 17:32:00,
2013-07-30 10:43:00,69.0,61.0,30.11,WSW,250,4.0,9.0,76,0.00,,,0.00,,2013-07-30 17:43:00,
2013-07-30 10:53:00,69.0,60.0,30.11,WSW,258,4.0,8.0,74,0.00,,,0.00,,2013-07-30 17:53:00,
2013-07-30 11:42:00,73.0,61.0,30.11,SSW,203,3.0,8.0,67,0.00,,,0.00,,2013-07-30 18:42:00,
2013-07-30 12:01:00,74.0,61.0,30.10,SSW,202,2.0,8.0,65,0.00,,,0.00,,2013-07-30 19:01:00,
2013-07-30 12:33:00,76.0,61.0,30.10,SW,217,2.0,8.0,60,0.00,,,0.00,,2013-07-30 19:33:00,
2013-07-30 12:43:00,77.0,62.0,30.09,SW,232,1.0,7.0,60,0.00,,,0.00,,2013-07-30 19:43:00,
2013-07-30 12:52:00,76.0,61.0,30.09,SW,229,3.0,9.0,60,0.00,,,0.00,,2013-07-30 19:52:00,
2013-07-30 13:32:00,78.0,62.0,30.08,WSW,244,1.0,8.0,57,0.00,,,0.00,,2013-07-30 20:32:00,
2013-07-30 13:52:00,79.0,61.0,30.08,WSW,248,2.0,8.0,54,0.00,,,0.00,,2013-07-30 20:52:00,
2013-07-30 14:02:00,79.0,61.0,30.08,SW,227,3.0,9.0,54,0.00,,,0.00,,2013-07-30 21:02:00,
2013-07-30 14:52:00,78.0,61.0,30.06,South,187,3.0,9.0,55,0.00,,,0.00,,2013-07-30 21:52:00,
2013-07-30 15:32:00,81.0,61.0,30.05,SW,231,1.0,6.0,51,0.00,,,0.00,,2013-07-30 22:32:00,
2013-07-30 15:42:00,81.0,61.0,30.05,SSW,198,3.0,7.0,51,0.00,,,0.00,,2013-07-30 22:42:00,
2013-07-30 15:52:00,81.0,62.0,30.05,SW,236,1.0,8.0,52,0.00,,,0.00,,2013-07-30 22:52:00,
2013-07-30 16:01:00,82.0,62.0,30.04,SSE,167,2.0,7.0,51,0.00,,,0.00,,2013-07-30 23:01:00,
2013-07-30 16:11:00,81.0,61.0,30.04,West,260,2.0,7.0,51,0.00,,,0.00,,2013-07-30 23:11:00,
2013-07-30 16:22:00,80.0,61.0,30.04,WSW,254,1.0,7.0,52,0.00,,,0.00,,2013-07-30 23:22:00,
2013-07-30 16:53:00,81.0,62.0,30.03,SSW,213,1.0,8.0,52,0.00,,,0.00,,2013-07-30 23:53:00,
2013-07-30 17:01:00,81.0,61.0,30.03,SSW,192,0.0,7.0,51,0.00,,,0.00,,2013-07-31 00:01:00,
2013-07-30 17:32:00,79.0,60.0,30.03,WSW,241,1.0,7.0,53,0.00,,,0.00,,2013-07-31 00:32:00,
2013-07-30 17:43:00,79.0,61.0,30.03,SW,234,2.0,7.0,54,0.00,,,0.00,,2013-07-31 00:43:00,
2013-07-30 18:01:00,79.0,60.0,30.03,SW,221,2.0,9.0,53,0.00,,,0.00,,2013-07-31 01:01:00,
2013-07-30 18:32:00,77.0,60.0,30.03,WSW,240,0.0,4.0,56,0.00,,,0.00,,2013-07-31 01:32:00,
2013-07-30 18:52:00,76.0,60.0,30.03,SW,230,0.0,5.0,58,0.00,,,0.00,,2013-07-31 01:52:00,
2013-07-30 19:01:00,75.0,60.0,30.03,SSW,211,1.0,7.0,59,0.00,,,0.00,,2013-07-31 02:01:00,
2013-07-30 19:11:00,75.0,60.0,30.03,WSW,241,1.0,5.0,59,0.00,,,0.00,,2013-07-31 02:11:00,
2013-07-30 19:22:00,74.0,59.0,30.03,SW,234,1.0,7.0,60,0.00,,,0.00,,2013-07-31 02:22:00,
2013-07-30 19:42:00,73.0,59.0,30.03,SW,226,2.0,5.0,62,0.00,,,0.00,,2013-07-31 02:42:00,
2013-07-30 19:52:00,71.0,59.0,30.03,SW,226,1.0,5.0,65,0.00,,,0.00,,2013-07-31 02:52:00,
2013-07-30 20:01:00,70.0,59.0,30.03,WSW,242,0.0,4.0,68,0.00,,,0.00,,2013-07-31 03:01:00,
2013-07-30 20:11:00,69.0,58.0,30.04,WSW,243,0.0,4.0,68,0.00,,,0.00,,2013-07-31 03:11:00,
2013-07-30 20:32:00,66.0,57.0,30.04,WSW,244,0.0,4.0,73,0.00,,,0.00,,2013-07-31 03:32:00,
2013-07-30 20:52:00,64.0,57.0,30.04,WSW,244,0.0,3.0,77,0.00,,,0.00,,2013-07-31 03:52:00,
2013-07-30 21:02:00,64.0,57.0,30.05,WSW,244,0.0,0.0,79,0.00,,,0.00,,2013-07-31 04:02:00,
2013-07-30 21:11:00,63.0,57.0,30.05,WSW,244,0.0,0.0,80,0.00,,,0.00,,2013-07-31 04:11:00,
2013-07-30 21:22:00,63.0,57.0,30.05,WSW,244,0.0,0.0,80,0.00,,,0.00,,2013-07-31 04:22:00,
2013-07-30 21:32:00,63.0,57.0,30.05,WSW,244,0.0,0.0,80,0.00,,,0.00,,2013-07-31 04:32:00,
2013-07-30 21:42:00,63.0,57.0,30.06,WSW,244,0.0,0.0,81,0.00,,,0.00,,2013-07-31 04:42:00,
2013-07-30 21:52:00,63.0,57.0,30.06,WSW,244,0.0,0.0,81,0.00,,,0.00,,2013-07-31 04:52:00,
2013-07-30 22:02:00,62.0,56.0,30.06,WSW,244,0.0,0.0,82,0.00,,,0.00,,2013-07-31 05:02:00,
2013-07-30 22:11:00,61.0,56.0,30.07,WSW,244,0.0,0.0,85,0.00,,,0.00,,2013-07-31 05:11:00,
2013-07-30 22:21:00,61.0,56.0,30.07,WSW,244,0.0,0.0,85,0.00,,,0.00,,2013-07-31 05:21:00,
2013-07-30 22:32:00,61.0,56.0,30.07,WSW,244,0.0,0.0,85,0.00,,,0.00,,2013-07-31 05:32:00,
2013-07-30 22:42:00,61.0,57.0,30.08,WSW,244,0.0,0.0,86,0.00,,,0.00,,2013-07-31 05:42:00,
2013-07-30 22:52:00,61.0,57.0,30.08,WSW,244,0.0,0.0,87,0.00,,,0.00,,2013-07-31 05:52:00,
2013-07-30 23:01:00,61.0,57.0,30.08,WSW,244,0.0,0.0,87,0.00,,,0.00,,2013-07-31 06:01:00,
2013-07-30 23:11:00,61.0,57.0,30.07,WSW,244,0.0,0.0,87,0.00,,,0.00,,2013-07-31 06:11:00,
2013-07-30 23:22:00,60.0,56.0,30.08,WSW,244,0.0,0.0,87,0.00,,,0.00,,2013-07-31 06:22:00,
2013-07-30 23:32:00,60.0,56.0,30.08,WSW,244,0.0,0.0,87,0.00,,,0.00,,2013-07-31 06:32:00,
2013-07-30 23:42:00,60.0,56.0,30.08,WSW,244,0.0,0.0,88,0.00,,,0.00,,2013-07-31 06:42:00,
2013-07-30 23:52:00,60.0,57.0,30.08,WSW,244,0.0,0.0,89,0.00,,,0.00,,2013-07-31 06:52:00,